createdAt,value
2023-04-21T00:02:06.862Z,4.58
2023-04-21T00:04:36.417Z,4.85
2023-04-21T00:07:06.809Z,4.37
2023-04-21T00:09:36.646Z,5.07
2023-04-21T00:12:06.903Z,5.05
2023-04-21T00:14:36.607Z,5.37
2023-04-21T00:17:06.174Z,4.70
2023-04-21T00:19:36.141Z,5.15
2023-04-21T00:22:07.356Z,5.35
2023-04-21T00:24:36.843Z,5.10
2023-04-21T00:27:08.276Z,4.85
2023-04-21T00:29:39.053Z,5.55
2023-04-21T00:32:10.480Z,5.78
2023-04-21T00:34:40.232Z,5.20
2023-04-21T00:37:09.936Z,5.40
2023-04-21T00:39:41.490Z,4.80
2023-04-21T00:42:11.411Z,4.78
2023-04-21T00:44:41.337Z,4.42
2023-04-21T00:47:12.098Z,4.62
2023-04-21T00:49:42.581Z,4.30
2023-04-21T00:52:13.003Z,5.40
2023-04-21T00:54:46.506Z,4.42
2023-04-21T00:57:19.302Z,4.42
2023-04-21T00:59:51.890Z,4.85
2023-04-21T01:02:22.956Z,4.90
2023-04-21T01:04:53.191Z,3.95
2023-04-21T01:07:23.253Z,4.33
2023-04-21T01:09:53.371Z,4.92
2023-04-21T01:12:23.488Z,4.40
2023-04-21T01:14:54.426Z,4.70
2023-04-21T01:17:24.020Z,4.30
2023-04-21T01:19:56.919Z,4.83
2023-04-21T01:22:26.967Z,4.15
2023-04-21T01:24:56.453Z,4.25
2023-04-21T01:27:27.211Z,4.45
2023-04-21T01:29:56.900Z,4.58
2023-04-21T01:32:32.454Z,4.27
2023-04-21T01:35:02.977Z,4.87
2023-04-21T01:37:34.096Z,4.20
2023-04-21T01:40:06.570Z,4.55
2023-04-21T01:42:38.653Z,4.17
2023-04-21T01:45:09.304Z,4.67
2023-04-21T01:48:34.104Z,4.73
2023-04-21T01:51:03.622Z,4.55
2023-04-21T01:53:33.168Z,4.53
2023-04-21T01:56:03.878Z,4.60
2023-04-21T01:58:33.602Z,4.70
2023-04-21T02:01:04.579Z,4.70
2023-04-21T02:03:34.399Z,5.30
2023-04-21T02:06:04.289Z,5.17
2023-04-21T02:08:35.363Z,5.40
2023-04-21T02:11:04.954Z,4.90
2023-04-21T02:13:34.510Z,5.60
2023-04-21T02:16:13.373Z,4.87
2023-04-21T02:18:35.187Z,5.37
2023-04-21T02:21:05.331Z,5.92
2023-04-21T02:25:40.163Z,5.03
2023-04-21T02:28:09.821Z,6.28
2023-04-21T02:30:40.935Z,5.30
2023-04-21T02:33:10.626Z,6.78
2023-04-21T02:35:40.640Z,6.08
2023-04-21T02:38:11.328Z,5.87
2023-04-21T02:40:41.287Z,6.58
2023-04-21T02:43:11.574Z,6.75
2023-04-21T02:45:41.182Z,5.65
2023-04-21T02:48:10.792Z,6.35
2023-04-21T02:50:40.347Z,6.58
2023-04-21T02:53:09.815Z,6.92
2023-04-21T02:55:39.358Z,6.35
2023-04-21T02:58:09.128Z,6.80
2023-04-21T03:00:38.835Z,6.12
2023-04-21T03:03:09.283Z,6.72
2023-04-21T03:05:39.149Z,6.67
2023-04-21T03:08:09.547Z,6.97
2023-04-21T03:10:39.720Z,7.42
2023-04-21T03:13:10.795Z,7.33
2023-04-21T03:15:40.274Z,7.65
2023-04-21T03:18:09.953Z,8.13
2023-04-21T03:20:39.738Z,8.55
2023-04-21T03:23:10.455Z,7.58
2023-04-21T03:25:40.830Z,8.45
2023-04-21T03:28:10.795Z,8.58
2023-04-21T03:30:40.502Z,9.28
2023-04-21T03:33:10.220Z,8.80
2023-04-21T03:35:39.919Z,8.55
2023-04-21T03:38:09.918Z,9.00
2023-04-21T03:40:39.486Z,8.55
2023-04-21T03:43:09.120Z,8.70
2023-04-21T03:45:39.868Z,8.73
2023-04-21T03:48:09.428Z,8.95
2023-04-21T03:50:40.119Z,9.08
2023-04-21T03:53:09.607Z,9.20
2023-04-21T03:55:39.085Z,9.00
2023-04-21T03:58:08.857Z,9.43
2023-04-21T04:00:38.323Z,9.28
2023-04-21T04:03:07.950Z,9.53
2023-04-21T04:05:38.971Z,9.13
2023-04-21T04:08:08.578Z,9.80
2023-04-21T04:10:38.108Z,10.43
2023-04-21T04:13:07.658Z,9.70
2023-04-21T04:15:37.236Z,9.63
2023-04-21T04:18:07.422Z,9.28
2023-04-21T04:20:37.006Z,10.28
2023-04-21T04:23:06.676Z,10.82
2023-04-21T04:25:38.112Z,9.70
2023-04-21T04:28:07.668Z,10.63
2023-04-21T04:30:37.533Z,9.48
2023-04-21T04:33:07.015Z,9.70
2023-04-21T04:35:36.572Z,9.65
2023-04-21T04:38:07.794Z,9.65
2023-04-21T04:40:37.706Z,9.80
2023-04-21T04:43:09.380Z,10.28
2023-04-21T04:45:38.912Z,8.87
2023-04-21T04:48:08.520Z,10.85
2023-04-21T04:50:38.224Z,10.93
2023-04-21T04:53:07.747Z,9.95
2023-04-21T04:55:37.274Z,9.63
2023-04-21T04:58:07.153Z,10.45
2023-04-21T05:00:37.171Z,11.00
2023-04-21T05:03:06.913Z,11.78
2023-04-21T05:05:36.501Z,10.43
2023-04-21T05:08:06.128Z,11.83
2023-04-21T05:10:36.576Z,10.75
2023-04-21T05:13:07.029Z,11.73
2023-04-21T05:15:36.552Z,12.55
2023-04-21T05:18:07.935Z,10.82
2023-04-21T05:20:37.485Z,10.55
2023-04-21T05:23:06.965Z,11.70
2023-04-21T05:25:38.624Z,11.80
2023-04-21T05:28:08.154Z,12.37
2023-04-21T05:30:37.714Z,11.40
2023-04-21T05:33:07.421Z,10.93
2023-04-21T05:35:38.047Z,11.33
2023-04-21T05:38:08.186Z,12.03
2023-04-21T05:40:37.749Z,11.57
2023-04-21T05:43:07.226Z,12.15
2023-04-21T05:45:41.331Z,11.28
2023-04-21T05:48:12.934Z,11.48
2023-04-21T05:50:42.392Z,11.08
2023-04-21T05:53:11.932Z,10.48
2023-04-21T05:55:41.423Z,10.03
2023-04-21T05:58:11.286Z,10.40
2023-04-21T06:00:41.150Z,10.28
2023-04-21T06:03:10.759Z,10.15
2023-04-21T06:05:40.691Z,9.73
2023-04-21T06:08:10.442Z,10.55
2023-04-21T06:10:40.460Z,9.90
2023-04-21T06:13:11.379Z,10.05
2023-04-21T06:15:41.184Z,9.50
2023-04-21T06:18:10.757Z,9.20
2023-04-21T06:20:41.575Z,9.95
2023-04-21T06:23:11.022Z,8.85
2023-04-21T06:25:40.571Z,8.40
2023-04-21T06:28:10.090Z,8.63
2023-04-21T06:30:40.419Z,8.70
2023-04-21T06:33:09.950Z,8.65
2023-04-21T06:35:39.529Z,7.55
2023-04-21T06:38:10.177Z,8.10
2023-04-21T06:40:39.673Z,7.70
2023-04-21T06:43:09.343Z,8.20
2023-04-21T06:45:39.470Z,7.90
2023-04-21T06:48:09.059Z,6.90
2023-04-21T06:50:38.609Z,6.72
2023-04-21T06:53:08.208Z,6.58
2023-04-21T06:55:37.677Z,7.53
2023-04-21T06:58:07.236Z,6.58
2023-04-21T07:00:37.017Z,6.50
2023-04-21T07:03:06.790Z,6.58
2023-04-21T07:05:36.485Z,6.30
2023-04-21T07:08:06.275Z,6.50
2023-04-21T07:10:35.813Z,5.92
2023-04-21T07:13:05.357Z,5.90
2023-04-21T07:15:34.998Z,5.35
2023-04-21T07:18:04.652Z,5.55
2023-04-21T07:20:34.235Z,5.40
2023-04-21T07:23:03.917Z,5.40
2023-04-21T07:25:34.016Z,5.12
2023-04-21T07:28:04.543Z,5.00
2023-04-21T07:30:34.174Z,5.05
2023-04-21T07:33:03.803Z,5.25
2023-04-21T07:35:33.319Z,5.40
2023-04-21T07:38:02.896Z,5.47
2023-04-21T07:40:32.437Z,5.03
2023-04-21T07:43:01.949Z,5.00
2023-04-21T07:45:32.038Z,4.80
2023-04-21T07:48:01.656Z,4.50
2023-04-21T07:50:31.924Z,4.93
2023-04-21T07:53:01.980Z,4.62
2023-04-21T07:55:31.550Z,4.25
2023-04-21T07:58:01.483Z,5.03
2023-04-21T08:00:30.944Z,4.75
2023-04-21T08:03:00.569Z,4.72
2023-04-21T08:05:34.723Z,4.70
2023-04-21T08:10:32.180Z,4.47
2023-04-21T08:13:02.965Z,4.42
2023-04-21T08:15:32.442Z,4.33
2023-04-21T08:18:02.046Z,4.05
2023-04-21T08:20:31.678Z,4.58
2023-04-21T08:23:01.598Z,5.00
2023-04-21T08:25:31.333Z,4.28
2023-04-21T08:28:00.849Z,4.30
2023-04-21T08:30:30.566Z,5.85
2023-04-21T08:33:00.358Z,4.60
2023-04-21T08:35:30.129Z,4.73
2023-04-21T08:38:00.122Z,4.87
2023-04-21T08:40:32.707Z,5.25
2023-04-21T08:43:02.338Z,5.33
2023-04-21T08:45:32.531Z,5.00
2023-04-21T08:48:06.000Z,4.85
2023-04-21T08:50:37.400Z,5.00
2023-04-21T08:53:07.432Z,5.05
2023-04-21T08:55:37.445Z,5.05
2023-04-21T08:58:07.460Z,4.50
2023-04-21T09:00:38.062Z,4.53
2023-04-21T09:03:19.261Z,4.03
2023-04-21T09:05:43.045Z,5.17
2023-04-21T09:08:12.986Z,4.72
2023-04-21T09:10:53.372Z,4.35
2023-04-21T09:13:24.461Z,4.72
2023-04-21T09:15:54.815Z,4.90
2023-04-21T09:18:27.193Z,4.72
2023-04-21T09:21:11.886Z,4.83
2023-04-21T09:23:52.823Z,4.60
2023-04-21T09:26:23.448Z,4.50
2023-04-21T09:28:54.844Z,4.17
2023-04-21T09:31:25.992Z,3.80
2023-04-21T09:34:00.745Z,4.30
2023-04-21T09:36:32.430Z,4.03
2023-04-21T09:41:37.063Z,4.45
2023-04-21T09:44:07.511Z,4.15
2023-04-21T09:46:38.236Z,4.60
2023-04-21T09:49:11.071Z,5.03
2023-04-21T09:51:56.262Z,4.10
2023-04-21T09:54:29.231Z,4.35
2023-04-21T09:56:54.873Z,4.53
2023-04-21T09:59:33.156Z,4.65
2023-04-21T10:02:05.120Z,4.12
2023-04-21T10:07:05.662Z,4.10
2023-04-21T10:09:38.215Z,3.85
2023-04-21T10:12:09.850Z,3.67
2023-04-21T10:14:40.275Z,4.45
2023-04-21T10:17:11.237Z,4.05
2023-04-21T10:19:52.544Z,3.90
2023-04-21T10:22:30.492Z,3.90
2023-04-21T10:25:07.791Z,4.03
2023-04-21T10:27:39.677Z,4.20
2023-04-21T10:30:24.208Z,3.97
2023-04-21T10:33:06.839Z,3.80
2023-04-21T10:36:02.560Z,4.03
2023-04-21T10:38:38.259Z,4.00
2023-04-21T10:41:29.150Z,3.47
2023-04-21T10:44:04.212Z,4.15
2023-04-21T10:46:39.656Z,4.03
2023-04-21T10:49:15.792Z,4.00
2023-04-21T10:52:03.645Z,3.80
2023-04-21T10:54:46.862Z,3.77
2023-04-21T10:57:19.188Z,3.52
2023-04-21T10:59:50.034Z,3.90
2023-04-21T11:02:20.621Z,4.08
2023-04-21T11:04:54.770Z,3.45
2023-04-21T11:07:28.480Z,4.10
2023-04-21T11:10:01.219Z,6.97
2023-04-21T11:12:33.745Z,4.28
2023-04-21T11:15:07.389Z,3.58
2023-04-21T11:17:39.845Z,4.60
2023-04-21T11:20:10.543Z,4.78
2023-04-21T11:22:40.362Z,4.17
2023-04-21T11:25:19.591Z,3.55
2023-04-21T11:27:57.597Z,3.42
2023-04-21T11:30:34.965Z,3.52
2023-04-21T11:33:06.117Z,4.10
2023-04-21T11:35:36.802Z,3.90
2023-04-21T11:38:07.511Z,3.72
2023-04-21T11:40:51.241Z,3.60
2023-04-21T11:43:22.408Z,3.90
2023-04-21T11:45:52.002Z,3.97
2023-04-21T11:48:21.614Z,3.42
2023-04-21T11:50:51.940Z,2.95
2023-04-21T11:53:21.595Z,3.07
2023-04-21T11:55:52.157Z,3.02
2023-04-21T11:58:23.043Z,4.35
2023-04-21T12:00:52.600Z,3.17
2023-04-21T12:03:22.302Z,3.00
2023-04-21T12:05:56.404Z,3.30
2023-04-21T12:08:27.632Z,3.27
2023-04-21T12:10:58.969Z,3.60
2023-04-21T12:13:32.501Z,3.10
2023-04-21T12:16:05.277Z,3.72
2023-04-21T12:18:36.848Z,3.00
2023-04-21T12:21:06.923Z,3.40
2023-04-21T12:23:36.564Z,2.95
2023-04-21T12:26:06.349Z,3.25
2023-04-21T12:28:36.749Z,3.08
2023-04-21T12:31:07.643Z,4.45
2023-04-21T12:33:37.262Z,3.55
2023-04-21T12:36:07.403Z,3.42
2023-04-21T12:38:37.121Z,3.37
2023-04-21T12:41:06.674Z,3.35
2023-04-21T12:43:36.481Z,3.72
2023-04-21T12:46:06.528Z,3.72
2023-04-21T12:48:36.875Z,3.40
2023-04-21T12:51:06.537Z,3.50
2023-04-21T12:53:37.917Z,4.37
2023-04-21T12:56:07.791Z,3.80
2023-04-21T12:58:37.298Z,3.75
2023-04-21T13:01:07.325Z,3.77
2023-04-21T13:03:37.724Z,3.47
2023-04-21T13:06:07.591Z,3.40
2023-04-21T13:08:37.875Z,3.47
2023-04-21T13:11:07.564Z,3.37
2023-04-21T13:13:37.157Z,3.83
2023-04-21T13:16:07.231Z,3.62
2023-04-21T13:18:38.050Z,3.58
2023-04-21T13:21:07.587Z,3.05
2023-04-21T13:23:37.168Z,6.53
2023-04-21T13:26:07.684Z,3.08
2023-04-21T13:28:38.794Z,3.42
2023-04-21T13:31:08.502Z,2.85
2023-04-21T13:33:38.360Z,2.65
2023-04-21T13:36:12.913Z,3.52
2023-04-21T13:38:42.911Z,3.70
2023-04-21T13:41:12.527Z,3.83
2023-04-21T13:43:41.990Z,3.10
2023-04-21T13:46:11.589Z,3.35
2023-04-21T13:48:41.915Z,3.50
2023-04-21T13:51:11.565Z,3.60
2023-04-21T13:53:41.753Z,4.05
2023-04-21T13:56:12.223Z,3.67
2023-04-21T13:58:43.008Z,3.60
2023-04-21T14:01:17.217Z,3.37
2023-04-21T14:03:47.895Z,4.25
2023-04-21T14:06:18.033Z,4.95
2023-04-21T14:08:47.591Z,3.83
2023-04-21T14:11:17.138Z,4.60
2023-04-21T14:14:00.863Z,3.85
2023-04-21T14:16:18.832Z,4.30
2023-04-21T14:18:48.471Z,3.85
2023-04-21T14:21:18.019Z,3.85
2023-04-21T14:23:47.565Z,3.52
2023-04-21T14:26:17.192Z,4.15
2023-04-21T14:28:47.065Z,4.00
2023-04-21T14:31:19.113Z,4.65
2023-04-21T14:33:48.851Z,4.67
2023-04-21T14:36:18.564Z,4.30
2023-04-21T14:38:48.286Z,4.72
2023-04-21T14:41:19.258Z,4.87
2023-04-21T14:43:50.443Z,4.22
2023-04-21T14:46:22.034Z,4.55
2023-04-21T14:48:51.676Z,3.87
2023-04-21T14:51:22.381Z,4.20
2023-04-21T14:53:52.312Z,4.90
2023-04-21T14:56:21.770Z,4.00
2023-04-21T14:58:51.383Z,4.45
2023-04-21T15:01:23.148Z,3.80
2023-04-21T15:03:52.993Z,4.30
2023-04-21T15:06:22.657Z,3.90
2023-04-21T15:08:52.512Z,5.70
2023-04-21T15:11:22.140Z,4.00
2023-04-21T15:13:51.767Z,5.42
2023-04-21T15:16:21.464Z,4.10
2023-04-21T15:18:52.222Z,4.17
2023-04-21T15:21:21.762Z,3.90
2023-04-21T15:23:51.309Z,4.50
2023-04-21T15:26:21.718Z,4.22
2023-04-21T15:28:51.204Z,4.00
2023-04-21T15:31:20.901Z,4.12
2023-04-21T15:33:52.298Z,4.33
2023-04-21T15:36:22.643Z,3.45
2023-04-21T15:38:52.167Z,4.50
2023-04-21T15:41:22.696Z,4.30
2023-04-21T15:43:52.377Z,3.77
2023-04-21T15:46:21.870Z,4.20
2023-04-21T15:48:51.463Z,4.47
2023-04-21T15:51:21.233Z,4.33
2023-04-21T15:53:50.831Z,3.95
2023-04-21T15:56:21.287Z,4.25
2023-04-21T15:58:51.276Z,3.92
2023-04-21T16:01:22.506Z,4.10
2023-04-21T16:03:54.226Z,4.17
2023-04-21T16:06:25.629Z,4.00
2023-04-21T16:08:55.584Z,4.50
2023-04-21T16:11:27.932Z,4.05
2023-04-21T16:13:58.283Z,4.20
2023-04-21T16:16:27.856Z,3.83
2023-04-21T16:18:57.637Z,3.65
2023-04-21T16:21:28.419Z,3.10
2023-04-21T16:23:58.291Z,3.95
2023-04-21T16:26:27.920Z,4.17
2023-04-21T16:28:58.219Z,3.90
2023-04-21T16:31:27.731Z,4.10
2023-04-21T16:33:59.160Z,3.83
2023-04-21T16:36:31.189Z,3.90
2023-04-21T16:39:01.609Z,3.80
2023-04-21T16:41:31.349Z,4.28
2023-04-21T16:44:01.888Z,4.05
2023-04-21T16:46:32.853Z,4.70
2023-04-21T16:49:07.222Z,4.00
2023-04-21T16:51:38.643Z,4.40
2023-04-21T16:54:08.219Z,4.10
2023-04-21T16:56:38.228Z,4.05
2023-04-21T16:59:08.477Z,4.08
2023-04-21T17:01:38.354Z,5.10
2023-04-21T17:04:08.485Z,3.72
2023-04-21T17:06:38.433Z,5.28
2023-04-21T17:09:09.118Z,5.22
2023-04-21T17:11:40.147Z,3.90
2023-04-21T17:14:10.792Z,4.78
2023-04-21T17:16:40.771Z,4.00
2023-04-21T17:19:10.670Z,4.17
2023-04-21T17:21:40.164Z,9.50
2023-04-21T17:24:09.715Z,4.00
2023-04-21T17:26:39.693Z,3.37
2023-04-21T17:29:11.200Z,4.17
2023-04-21T17:31:41.496Z,3.87
2023-04-21T17:34:11.108Z,4.62
2023-04-21T17:36:40.787Z,3.70
2023-04-21T17:39:10.904Z,3.40
2023-04-21T17:41:42.046Z,3.27
2023-04-21T17:44:11.685Z,3.65
2023-04-21T17:46:41.827Z,3.40
2023-04-21T17:49:11.657Z,3.30
2023-04-21T17:51:41.161Z,3.50
2023-04-21T17:54:11.923Z,3.98
2023-04-21T17:56:41.587Z,3.35
2023-04-21T17:59:11.202Z,3.70
2023-04-21T18:01:40.994Z,3.40
2023-04-21T18:04:11.282Z,3.35
2023-04-21T18:06:41.846Z,2.92
2023-04-21T18:09:11.448Z,3.65
2023-04-21T18:11:41.739Z,3.52
2023-04-21T18:14:12.140Z,3.10
2023-04-21T18:16:41.638Z,3.17
2023-04-21T18:19:11.846Z,3.92
2023-04-21T18:21:41.465Z,3.00
2023-04-21T18:24:11.024Z,3.17
2023-04-21T18:26:40.586Z,3.95
2023-04-21T18:29:11.444Z,3.67
2023-04-21T18:31:41.030Z,3.83
2023-04-21T18:34:11.817Z,3.15
2023-04-21T18:36:45.211Z,3.37
2023-04-21T18:39:14.885Z,4.00
2023-04-21T18:41:46.181Z,4.22
2023-04-21T18:44:17.940Z,3.32
2023-04-21T18:46:47.498Z,3.42
2023-04-21T18:49:17.030Z,3.30
2023-04-21T18:51:46.616Z,3.70
2023-04-21T18:54:16.973Z,3.20
2023-04-21T18:56:46.696Z,3.52
2023-04-21T18:59:16.172Z,3.47
2023-04-21T19:01:45.925Z,2.98
2023-04-21T19:04:16.086Z,3.30
2023-04-21T19:06:46.333Z,3.12
2023-04-21T19:09:16.007Z,3.22
2023-04-21T19:11:46.605Z,4.10
2023-04-21T19:14:16.870Z,3.68
2023-04-21T19:16:47.787Z,3.25
2023-04-21T19:19:19.002Z,3.30
2023-04-21T19:21:50.274Z,3.70
2023-04-21T19:24:22.083Z,3.70
2023-04-21T19:26:51.562Z,3.40
2023-04-21T19:29:21.636Z,4.27
2023-04-21T19:31:52.450Z,2.62
2023-04-21T19:34:22.286Z,3.45
2023-04-21T19:36:53.128Z,4.05
2023-04-21T19:39:23.255Z,3.87
2023-04-21T19:41:53.638Z,4.00
2023-04-21T19:44:23.124Z,3.80
2023-04-21T19:46:52.773Z,4.12
2023-04-21T19:49:22.317Z,3.47
2023-04-21T19:51:51.805Z,4.28
2023-04-21T19:54:21.278Z,4.08
2023-04-21T19:56:50.953Z,3.72
2023-04-21T19:59:20.451Z,4.75
2023-04-21T20:01:49.960Z,4.20
2023-04-21T20:04:19.674Z,3.27
2023-04-21T20:06:49.864Z,3.58
2023-04-21T20:09:19.761Z,4.05
2023-04-21T20:11:49.882Z,4.50
2023-04-21T20:14:20.716Z,5.05
2023-04-21T20:16:50.484Z,4.28
2023-04-21T20:19:21.683Z,4.55
2023-04-21T20:21:51.427Z,4.40
2023-04-21T20:24:21.480Z,4.20
2023-04-21T20:26:51.600Z,4.50
2023-04-21T20:29:21.222Z,4.50
2023-04-21T20:31:51.134Z,4.60
2023-04-21T20:34:20.758Z,4.67
2023-04-21T20:36:51.654Z,4.37
2023-04-21T20:39:22.284Z,3.90
2023-04-21T20:42:04.767Z,4.28
2023-04-21T20:44:27.043Z,4.90
2023-04-21T20:46:57.411Z,5.62
2023-04-21T20:49:27.211Z,4.75
2023-04-21T20:52:00.809Z,4.85
2023-04-21T20:54:30.526Z,4.42
2023-04-21T20:57:00.168Z,3.75
2023-04-21T20:59:30.090Z,3.33
2023-04-21T21:01:59.768Z,4.37
2023-04-21T21:04:29.240Z,4.33
2023-04-21T21:06:58.841Z,5.12
2023-04-21T21:09:28.862Z,4.53
2023-04-21T21:11:58.393Z,4.40
2023-04-21T21:14:27.976Z,4.37
2023-04-21T21:16:57.571Z,5.45
2023-04-21T21:19:27.381Z,4.47
2023-04-21T21:21:56.878Z,4.60
2023-04-21T21:24:26.892Z,4.55
2023-04-21T21:26:57.509Z,4.85
2023-04-21T21:29:27.060Z,5.10
2023-04-21T21:31:56.748Z,5.22
2023-04-21T21:34:26.196Z,5.50
2023-04-21T21:36:55.822Z,5.08
2023-04-21T21:39:25.730Z,4.80
2023-04-21T21:41:55.284Z,5.55
2023-04-21T21:44:24.836Z,4.67
2023-04-21T21:46:54.388Z,4.78
2023-04-21T21:49:23.855Z,4.78
2023-04-21T21:51:54.653Z,4.95
2023-04-21T21:54:24.148Z,4.72
2023-04-21T21:56:53.814Z,5.17
2023-04-21T21:59:23.648Z,4.80
2023-04-21T22:01:53.297Z,5.60
2023-04-21T22:04:23.150Z,4.95
2023-04-21T22:06:52.907Z,5.15
2023-04-21T22:09:22.441Z,4.78
2023-04-21T22:11:52.140Z,4.95
2023-04-21T22:14:23.721Z,4.33
2023-04-21T22:16:54.191Z,5.03
2023-04-21T22:19:23.728Z,6.33
2023-04-21T22:21:53.740Z,4.87
2023-04-21T22:24:23.513Z,5.03
2023-04-21T22:26:53.296Z,5.10
2023-04-21T22:29:22.766Z,5.73
2023-04-21T22:31:52.435Z,5.25
2023-04-21T22:34:23.741Z,4.92
2023-04-21T22:36:53.527Z,6.03
2023-04-21T22:39:23.081Z,5.62
2023-04-21T22:41:53.378Z,5.58
2023-04-21T22:44:22.837Z,5.43
2023-04-21T22:46:52.433Z,5.33
2023-04-21T22:49:22.867Z,5.40
2023-04-21T22:51:54.217Z,5.08
2023-04-21T22:54:23.770Z,5.12
2023-04-21T22:56:53.427Z,5.42
2023-04-21T22:59:23.074Z,5.40
2023-04-21T23:01:52.689Z,5.58
2023-04-21T23:04:22.316Z,5.45
2023-04-21T23:06:51.892Z,5.22
2023-04-21T23:09:21.438Z,4.45
2023-04-21T23:11:50.983Z,5.97
2023-04-21T23:14:20.725Z,5.55
2023-04-21T23:16:50.252Z,5.17
2023-04-21T23:19:21.311Z,5.33
2023-04-21T23:21:50.871Z,6.15
2023-04-21T23:24:20.423Z,6.22
2023-04-21T23:26:50.249Z,5.67
2023-04-21T23:29:19.717Z,6.10
2023-04-21T23:31:49.234Z,5.67
2023-04-21T23:34:18.836Z,6.53
2023-04-21T23:36:48.718Z,5.97
2023-04-21T23:39:18.449Z,5.72
2023-04-21T23:41:47.997Z,6.37
2023-04-21T23:44:18.432Z,5.86
2023-04-21T23:46:48.122Z,5.90
2023-04-21T23:49:17.600Z,5.92
2023-04-21T23:51:47.260Z,5.72
2023-04-21T23:54:16.885Z,7.10
2023-04-21T23:56:46.360Z,6.60
2023-04-21T23:59:16.011Z,7.03
